• Join FlightAware (Why Join?)
  • Login
  • US Flag 
01:33AM EST


 

Airport Tracker/Info


-or-


 

Live Flight TrackerFlight Track Log ✈ AMX466 ✈ 31-Aug-2013 ✈ MMGL / GDL - KLAX

Flight Track Log - Related Links

Times and Time Zones

All times are in EDT time to prevent confusion due to time zone crossing. See the AMX466 flight status page for this flight to view local times or setup timezone preferences in your user account.

Time Position Orientation Groundspeed Altitude Reporting Facility
EDT Latitude Longitude Course Direction KTS MPH feet Rate Location/Type
11:27PM 20.6133 -101.6575 86° East  Level FlightAware Approximate
11:28PM 20.6197 -101.5302 87° East  Level FlightAware Approximate
11:29PM 20.6260 -101.4029 87° East  Level FlightAware Approximate
11:30PM 20.6322 -101.2756 87° East  Level FlightAware Approximate
11:31PM 20.6383 -101.1483 87° East  Level FlightAware Approximate
11:32PM 20.6444 -101.0210 87° East  Level FlightAware Approximate
11:33PM 20.6500 -100.8995 86° East  Level FlightAware Approximate
11:34PM 20.6584 -100.7723 86° East  Level FlightAware Approximate
11:35PM 20.6666 -100.6451 86° East  Level FlightAware Approximate
11:36PM 20.6748 -100.5179 86° East  Level FlightAware Approximate
11:37PM 20.6829 -100.3907 86° East  Level FlightAware Approximate
11:38PM 20.6901 -100.2634 87° East  Level FlightAware Approximate
11:39PM 20.6973 -100.1361 87° East  Level FlightAware Approximate
11:40PM 20.7043 -100.0088 87° East  Level FlightAware Approximate
11:41PM 20.7113 -99.8814 87° East  Level FlightAware Approximate
11:42PM 20.7182 -99.7541 87° East  Level FlightAware Approximate
11:43PM 20.7250 -99.6267 87° East  Level FlightAware Approximate
11:44PM 20.7316 -99.4994 87° East  Level FlightAware Approximate
11:45PM 20.7381 -99.3720 87° East  Level FlightAware Approximate
11:46PM 20.7445 -99.2446 87° East  Level FlightAware Approximate
11:47PM 20.7507 -99.1172 87° East  Level FlightAware Approximate
11:48PM 20.7569 -98.9898 87° East  Level FlightAware Approximate
11:49PM 20.7630 -98.8624 87° East  Level FlightAware Approximate
11:50PM 20.7686 -98.7349 88° East  Level FlightAware Approximate
11:51PM 20.7736 -98.6074 88° East  Level FlightAware Approximate
11:52PM 20.7784 -98.4799 88° East  Level FlightAware Approximate
11:53PM 20.7832 -98.3524 88° East  Level FlightAware Approximate
11:54PM 20.7879 -98.2249 88° East  Level FlightAware Approximate
11:55PM 20.7925 -98.0974 88° East  Level FlightAware Approximate
11:56PM 20.7970 -97.9699 88° East  Level FlightAware Approximate
11:57PM 20.8014 -97.8424 88° East  Level FlightAware Approximate
11:58PM 20.8057 -97.7148 88° East  Level FlightAware Approximate
11:59PM 20.8099 -97.5873 88° East  Level FlightAware Approximate
12:00AM 20.8140 -97.4597 88° East  Level FlightAware Approximate
12:01AM 20.8180 -97.3322 88° East  Level FlightAware Approximate
12:02AM 20.8220 -97.2046 88° East  Level FlightAware Approximate
12:03AM 20.8258 -97.0770 88° East  Level FlightAware Approximate
12:04AM 20.8295 -96.9494 88° East  Level FlightAware Approximate
12:05AM 20.8332 -96.8218 88° East  Level FlightAware Approximate
12:06AM 20.8367 -96.6942 88° East  Level FlightAware Approximate
12:07AM 20.8402 -96.5666 88° East  Level FlightAware Approximate
12:08AM 20.8435 -96.4390 88° East  Level FlightAware Approximate
12:09AM 20.8468 -96.3114 88° East  Level FlightAware Approximate
12:10AM 20.8500 -96.1838 88° East  Level FlightAware Approximate
12:11AM 20.8540 -96.0562 88° East  Level FlightAware Approximate
12:12AM 20.8579 -95.9286 88° East  Level FlightAware Approximate
12:13AM 20.8617 -95.8010 88° East  Level FlightAware Approximate
12:14AM 20.8654 -95.6734 88° East  Level FlightAware Approximate
12:15AM 20.8690 -95.5458 88° East  Level FlightAware Approximate
12:16AM 20.8725 -95.4181 88° East  Level FlightAware Approximate
12:17AM 20.8759 -95.2905 88° East  Level FlightAware Approximate
12:18AM 20.8792 -95.1629 88° East  Level FlightAware Approximate
12:19AM 20.8825 -95.0352 88° East  Level FlightAware Approximate
12:20AM 20.8852 -94.9076 89° East  Level FlightAware Approximate
12:21AM 20.8876 -94.7799 89° East  Level FlightAware Approximate
12:22AM 20.8899 -94.6522 89° East  Level FlightAware Approximate
12:23AM 20.8922 -94.5246 89° East  Level FlightAware Approximate
12:24AM 20.8944 -94.3969 89° East  Level FlightAware Approximate
12:25AM 20.8964 -94.2692 89° East  Level FlightAware Approximate
12:26AM 20.8984 -94.1415 89° East  Level FlightAware Approximate
12:27AM 20.9003 -94.0138 89° East  Level FlightAware Approximate
12:28AM 20.9020 -93.8861 89° East  Level FlightAware Approximate
12:29AM 20.9037 -93.7584 89° East  Level FlightAware Approximate
12:30AM 20.9053 -93.6307 89° East  Level FlightAware Approximate
12:31AM 20.9068 -93.5030 89° East  Level FlightAware Approximate
12:32AM 20.9082 -93.3753 89° East  Level FlightAware Approximate
12:33AM 20.9095 -93.2476 89° East  Level FlightAware Approximate
12:34AM 20.9107 -93.1199 89° East  Level FlightAware Approximate
12:35AM 20.9118 -92.9922 89° East  Level FlightAware Approximate
12:36AM 20.9128 -92.8645 89° East  Level FlightAware Approximate
12:37AM 20.9138 -92.7368 90° East  Level FlightAware Approximate
12:38AM 20.9146 -92.6090 90° East  Level FlightAware Approximate
12:39AM 20.9153 -92.4813 90° East  Level FlightAware Approximate
12:40AM 20.9160 -92.3536 90° East  Level FlightAware Approximate
12:41AM 20.9165 -92.2259 90° East  Level FlightAware Approximate
12:42AM 20.9171 -92.0982 90° East  Level FlightAware Approximate
12:43AM 20.9177 -91.9705 90° East  Level FlightAware Approximate
12:44AM 20.9182 -91.8428 90° East  Level FlightAware Approximate
12:45AM 20.9186 -91.7150 90° East  Level FlightAware Approximate
12:46AM 20.9189 -91.5873 90° East  Level FlightAware Approximate
12:47AM 20.9191 -91.4596 90° East  Level FlightAware Approximate
12:48AM 20.9193 -91.3319 90° East  Level FlightAware Approximate
12:49AM 20.9193 -91.2041 90° East  Level FlightAware Approximate
12:50AM 20.9192 -91.0764 90° East  Level FlightAware Approximate
12:51AM 20.9191 -90.9487 90° East  Level FlightAware Approximate
12:52AM 20.9188 -90.8210 90° East  Level FlightAware Approximate
12:53AM 20.9184 -90.6933 90° East  Level FlightAware Approximate
12:54AM 20.9180 -90.5656 90° East  Level FlightAware Approximate
12:55AM 20.9174 -90.4378 90° East  Level FlightAware Approximate
12:56AM 20.9168 -90.3101 90° East  Level FlightAware Approximate
12:57AM 20.9151 -90.1824 91° East  Level FlightAware Approximate
12:58AM 20.9130 -90.0547 91° East  Level FlightAware Approximate
12:59AM 20.9109 -89.9270 91° East  Level FlightAware Approximate
01:00AM 20.9086 -89.7993 91° East  Level FlightAware Approximate
01:01AM 20.9063 -89.6716 91° East  Level FlightAware Approximate
01:02AM 20.9039 -89.5439 91° East  Level FlightAware Approximate
01:03AM 20.9013 -89.4162 91° East  Level FlightAware Approximate
01:04AM 20.8987 -89.2886 91° East  Level FlightAware Approximate
01:05AM 20.8960 -89.1609 91° East  Level FlightAware Approximate
01:06AM 20.8932 -89.0332 91° East  Level FlightAware Approximate
01:07AM 20.8903 -88.9056 91° East  Level FlightAware Approximate
01:08AM 20.8873 -88.7779 91° East  Level FlightAware Approximate
01:09AM 20.8842 -88.6503 91° East  Level FlightAware Approximate
01:10AM 20.8813 -88.5226 91° East  Level FlightAware Approximate
01:11AM 20.8785 -88.3950 91° East  Level FlightAware Approximate
01:12AM 20.8756 -88.2673 91° East  Level FlightAware Approximate
01:13AM 20.8726 -88.1397 91° East  Level FlightAware Approximate
01:14AM 20.8695 -88.0120 91° East  Level FlightAware Approximate
01:15AM 20.8665 -87.8844 91° East  Level FlightAware Approximate
01:16AM 20.8647 -87.7567 91° East  Level FlightAware Approximate
01:17AM 20.8629 -87.6291 91° East  Level FlightAware Approximate
01:18AM 20.8610 -87.5014 91° East  Level FlightAware Approximate
01:19AM 20.8590 -87.3738 91° East  Level FlightAware Approximate
01:20AM 20.8568 -87.2461 91° East  Level FlightAware Approximate
01:21AM 20.8546 -87.1185 91° East  Level FlightAware Approximate
01:22AM 20.8523 -86.9908 91° East  Level FlightAware Approximate
01:23AM 20.8517 -86.8697 301° West  Level FlightAware Approximate
01:24AM 20.9130 -86.9792 301° West  Level FlightAware Approximate
01:25AM 20.9742 -87.0889 301° West  Level FlightAware Approximate
01:26AM 21.0353 -87.1986 301° West  Level FlightAware Approximate
01:27AM 21.0964 -87.3084 301° West  Level FlightAware Approximate
01:28AM 21.1574 -87.4183 301° West  Level FlightAware Approximate
01:29AM 21.2184 -87.5283 301° West  Level FlightAware Approximate
01:30AM 21.2792 -87.6384 301° West  Level FlightAware Approximate
01:31AM 21.3400 -87.7486 301° West  Level FlightAware Approximate
01:32AM 21.4035 -87.8570 302° West  Level FlightAware Approximate
01:33AM 21.4675 -87.9652 302° West  Level FlightAware Approximate
01:34AM 21.5314 -88.0735 302° West  Level FlightAware Approximate
01:34AM 32.4597 -115.2933 301° West 474 545 39,900  Level Los Angeles Center
01:35AM 21.5939 -88.1828 301° West  Level FlightAware Approximate
01:35AM 32.5319 -115.4264 303° West 477 549 39,900  Level Los Angeles Center
01:36AM 21.6546 -88.2932 301° West  Level FlightAware Approximate
01:36AM 32.6036 -115.5608 302° West 482 555 40,000  Level Los Angeles Center
01:37AM 21.7153 -88.4038 301° West  Level FlightAware Approximate
01:37AM 32.6742 -115.6947 302° West 481 554 40,000  Level Los Angeles Center
01:38AM 21.7759 -88.5144 301° West  Level FlightAware Approximate
01:38AM 32.7447 -115.8289 302° West 481 554 39,100  Level Los Angeles Center
01:39AM 21.8365 -88.6251 301° West  Level FlightAware Approximate
01:39AM 32.8147 -115.9603 302° West 473 544 36,500  Level Los Angeles Center
01:40AM 32.8853 -116.0928 302° West 477 549 33,200 -3,180 Descending Los Angeles Center
01:41AM 32.9656 -116.2453 302° West 478 550 30,200 -2,700 Descending Los Angeles Center
01:42AM 33.0336 -116.3744 302° West 462 532 27,800 -2,340 Descending Los Angeles Center
01:43AM 33.0969 -116.5003 301° West 442 509 25,500 -2,280 Descending Los Angeles Center
01:44AM 33.1450 -116.6253 295° West 432 497 23,300 -2,160 Descending Los Angeles Center
01:45AM 33.1622 -116.7567 279° West 412 474 21,200 -2,100 Descending Los Angeles Center
01:46AM 33.1772 -116.8844 278° West 397 457 19,100 -2,040 Descending Los Angeles Center
01:47AM 33.1917 -117.0042 278° West 378 435 17,100 -1,980 Descending Los Angeles Center
01:48AM 33.2058 -117.1217 278° West 364 419 15,200 -1,920 Descending Los Angeles Center
01:49AM 33.2192 -117.2394 278° West 353 406 13,300 -1,620 Descending Los Angeles Center
01:50AM 33.2322 -117.3522 278° West 346 398 12,000 -660 Descending Los Angeles Center
01:51AM 33.2611 -117.4492 290° West 327 376 12,000  Level Los Angeles Center
01:52AM 33.3306 -117.5258 317° Northwest 340 391 12,000 -600 Level Los Angeles Center
01:53AM 33.3969 -117.6036 316° Northwest 337 388 10,900 -1,200 Descending Los Angeles Center
01:54AM 33.4628 -117.6792 316° Northwest 331 381 9,700 -1,260 Descending Los Angeles Center
01:55AM 33.5267 -117.7531 316° Northwest 323 372 8,400 -1,200 Descending Los Angeles Center
01:56AM 33.5850 -117.8211 316° Northwest 303 349 7,400 -720 Descending Los Angeles Center
01:57AM 33.6414 -117.8872 316° Northwest 289 333 7,000 -240 Descending Los Angeles Center
01:58AM 33.6931 -117.9478 316° Northwest 270 311 7,000  Level Los Angeles Center
01:59AM 33.7414 -118.0042 316° Northwest 253 291 7,000  Level Los Angeles Center
02:00AM 33.7908 -118.0608 316° Northwest 249 287 7,000 -600 Level Los Angeles Center
02:01AM 33.8578 -118.0742 351° North 247 284 5,800 -1,200 Descending Los Angeles Center
02:02AM 33.9200 -118.0856 351° North 234 269 4,700 -1,140 Descending Los Angeles Center
02:03AM 33.9639 -118.1300 320° Northwest 214 246 3,600 -1,200 Descending Los Angeles Center
02:04AM 33.9736 -118.2058 279° West 197 227 2,400 -720 Descending Los Angeles Center
02:05AM 33.9664 -118.2650 262° West 186 214 2,200 -480 Descending Los Angeles Center
02:06AM 33.9622 -118.3153 264° West 166 191 1,500 -660 Descending Los Angeles Center
02:07AM 33.9578 -118.3567 263° West 140 161 900 -660 Descending Los Angeles Center
02:08AM 33.9531 -118.3983 262° West 131 151 200 -720 Descending Los Angeles Center
02:10AM 33.9333 -118.4000 260° West  Level FlightAware Approximate
02:17AM 33.9425 -118.4081 260° West  Level Estimated